createdAt,value
2018-03-22T00:00:29.781Z,10.05
2018-03-22T00:01:06.495Z,10.63
2018-03-22T00:01:43.496Z,9.63
2018-03-22T00:02:20.132Z,10.48
2018-03-22T00:02:58.181Z,10.00
2018-03-22T00:03:33.990Z,9.48
2018-03-22T00:04:08.336Z,10.23
2018-03-22T00:04:45.029Z,10.18
2018-03-22T00:05:22.538Z,9.63
2018-03-22T00:05:59.800Z,9.73
2018-03-22T00:06:36.460Z,10.10
2018-03-22T00:07:13.559Z,10.02
2018-03-22T00:07:50.878Z,9.35
2018-03-22T00:08:28.180Z,11.23
2018-03-22T00:09:02.066Z,10.20
2018-03-22T00:09:36.103Z,10.13
2018-03-22T00:10:13.394Z,10.38
2018-03-22T00:10:50.253Z,9.80
2018-03-22T00:11:26.622Z,9.80
2018-03-22T00:12:02.906Z,10.02
2018-03-22T00:12:39.736Z,9.73
2018-03-22T00:13:16.571Z,10.05
2018-03-22T00:13:50.439Z,11.38
2018-03-22T00:14:24.298Z,10.70
2018-03-22T00:15:00.439Z,11.12
2018-03-22T00:15:36.959Z,9.90
2018-03-22T00:16:13.702Z,10.02
2018-03-22T00:16:50.175Z,10.43
2018-03-22T00:17:27.065Z,10.55
2018-03-22T00:18:03.534Z,9.55
2018-03-22T00:18:38.242Z,11.40
2018-03-22T00:19:12.092Z,10.30
2018-03-22T00:19:47.932Z,11.38
2018-03-22T00:20:24.838Z,10.88
2018-03-22T00:21:01.670Z,9.20
2018-03-22T00:21:37.301Z,10.48
2018-03-22T00:22:20.256Z,10.40
2018-03-22T00:22:54.542Z,10.13
2018-03-22T00:23:28.421Z,10.55
2018-03-22T00:24:02.312Z,11.32
2018-03-22T00:24:36.184Z,10.10
2018-03-22T00:25:10.076Z,9.93
2018-03-22T00:25:43.934Z,10.50
2018-03-22T00:26:17.931Z,10.65
2018-03-22T00:26:51.808Z,10.93
2018-03-22T00:27:25.676Z,10.30
2018-03-22T00:27:59.541Z,11.23
2018-03-22T00:28:33.406Z,10.77
2018-03-22T00:29:07.334Z,12.43
2018-03-22T00:29:41.202Z,10.07
2018-03-22T00:30:15.222Z,9.15
2018-03-22T00:30:49.099Z,10.45
2018-03-22T00:31:22.982Z,10.75
2018-03-22T00:31:56.845Z,10.02
2018-03-22T00:32:30.720Z,10.10
2018-03-22T00:33:04.598Z,10.25
2018-03-22T00:33:38.460Z,11.10
2018-03-22T00:34:12.441Z,9.98
2018-03-22T00:34:46.296Z,11.27
2018-03-22T00:35:20.150Z,9.43
2018-03-22T00:35:54.031Z,11.65
2018-03-22T00:36:28.028Z,10.88
2018-03-22T00:37:01.930Z,10.30
2018-03-22T00:37:35.793Z,9.80
2018-03-22T00:38:09.660Z,10.07
2018-03-22T00:38:43.525Z,10.23
2018-03-22T00:39:17.437Z,10.52
2018-03-22T00:39:51.283Z,10.95
2018-03-22T00:40:25.142Z,10.48
2018-03-22T00:40:59.471Z,10.57
2018-03-22T00:41:33.612Z,10.20
2018-03-22T00:42:07.477Z,10.98
2018-03-22T00:42:41.345Z,11.68
2018-03-22T00:43:15.211Z,12.10
2018-03-22T00:43:49.061Z,11.45
2018-03-22T00:44:23.286Z,11.57
2018-03-22T00:44:57.384Z,11.73
2018-03-22T00:45:31.227Z,11.88
2018-03-22T00:46:05.093Z,10.68
2018-03-22T00:46:39.093Z,11.07
2018-03-22T00:47:12.962Z,11.25
2018-03-22T00:47:46.855Z,11.23
2018-03-22T00:48:20.722Z,10.07
2018-03-22T00:48:54.584Z,11.40
2018-03-22T00:49:28.460Z,11.20
2018-03-22T00:50:02.452Z,9.82
2018-03-22T00:50:36.355Z,10.50
2018-03-22T00:51:10.233Z,10.43
2018-03-22T00:51:44.224Z,10.27
2018-03-22T00:52:18.091Z,11.18
2018-03-22T00:52:51.970Z,10.88
2018-03-22T00:53:25.837Z,11.10
2018-03-22T00:53:59.722Z,10.50
2018-03-22T00:54:33.592Z,10.02
2018-03-22T00:55:07.603Z,10.40
2018-03-22T00:55:41.466Z,10.35
2018-03-22T00:56:15.325Z,11.05
2018-03-22T00:56:49.504Z,11.23
2018-03-22T00:57:23.389Z,11.02
2018-03-22T00:57:57.380Z,10.90
2018-03-22T00:58:31.233Z,11.38
2018-03-22T00:59:05.474Z,10.30
2018-03-22T00:59:39.373Z,10.82
2018-03-22T01:00:13.267Z,10.68
2018-03-22T01:00:47.134Z,10.48
2018-03-22T01:01:20.985Z,10.45
2018-03-22T01:01:54.845Z,10.30
2018-03-22T01:02:28.704Z,10.38
2018-03-22T01:03:02.755Z,10.45
2018-03-22T01:03:36.644Z,10.57
2018-03-22T01:04:10.511Z,10.68
2018-03-22T01:04:44.546Z,10.95
2018-03-22T01:05:18.431Z,10.63
2018-03-22T01:05:52.474Z,12.40
2018-03-22T01:06:26.346Z,12.02
2018-03-22T01:07:00.332Z,12.75
2018-03-22T01:07:34.216Z,11.27
2018-03-22T01:08:08.110Z,11.82
2018-03-22T01:08:42.021Z,11.10
2018-03-22T01:09:15.886Z,11.70
2018-03-22T01:09:49.759Z,10.48
2018-03-22T01:10:23.790Z,11.40
2018-03-22T01:10:57.696Z,11.07
2018-03-22T01:11:31.720Z,11.35
2018-03-22T01:12:05.553Z,10.98
2018-03-22T01:12:39.478Z,11.98
2018-03-22T01:13:13.363Z,11.75
2018-03-22T01:13:47.234Z,11.35
2018-03-22T01:14:21.099Z,12.45
2018-03-22T01:14:54.993Z,10.95
2018-03-22T01:15:28.887Z,11.27
2018-03-22T01:16:02.968Z,10.60
2018-03-22T01:16:36.824Z,11.52
2018-03-22T01:17:10.743Z,10.73
2018-03-22T01:17:44.598Z,10.95
2018-03-22T01:18:18.641Z,10.93
2018-03-22T01:18:52.522Z,11.70
2018-03-22T01:19:26.549Z,11.60
2018-03-22T01:20:00.450Z,10.68
2018-03-22T01:20:34.314Z,12.55
2018-03-22T01:21:08.177Z,11.35
2018-03-22T01:21:42.108Z,10.05
2018-03-22T01:22:16.241Z,10.23
2018-03-22T01:22:50.107Z,10.75
2018-03-22T01:23:24.206Z,10.10
2018-03-22T01:23:58.073Z,11.25
2018-03-22T01:24:31.934Z,10.55
2018-03-22T01:25:06.092Z,11.77
2018-03-22T01:25:40.202Z,10.45
2018-03-22T01:26:14.199Z,11.02
2018-03-22T01:26:48.185Z,10.23
2018-03-22T01:27:22.049Z,11.60
2018-03-22T01:27:55.918Z,11.35
2018-03-22T01:28:29.781Z,10.95
2018-03-22T01:29:03.632Z,10.85
2018-03-22T01:29:37.489Z,12.05
2018-03-22T01:30:17.152Z,11.27
2018-03-22T01:30:51.026Z,10.30
2018-03-22T01:31:25.089Z,11.38
2018-03-22T01:31:58.950Z,12.63
2018-03-22T01:32:32.997Z,10.95
2018-03-22T01:33:06.862Z,12.07
2018-03-22T01:33:40.735Z,10.75
2018-03-22T01:34:14.685Z,10.95
2018-03-22T01:34:48.540Z,10.52
2018-03-22T01:35:22.567Z,11.10
2018-03-22T01:35:56.429Z,10.73
2018-03-22T01:36:30.289Z,12.52
2018-03-22T01:37:04.151Z,11.35
2018-03-22T01:37:38.137Z,11.63
2018-03-22T01:38:12.030Z,10.57
2018-03-22T01:38:45.932Z,11.82
2018-03-22T01:39:19.794Z,11.23
2018-03-22T01:39:53.727Z,11.95
2018-03-22T01:40:27.639Z,11.05
2018-03-22T01:41:01.536Z,11.60
2018-03-22T01:41:35.413Z,12.10
2018-03-22T01:42:09.281Z,11.75
2018-03-22T01:42:43.146Z,11.88
2018-03-22T01:43:17.014Z,13.90
2018-03-22T01:43:50.890Z,11.57
2018-03-22T01:44:24.784Z,12.85
2018-03-22T01:44:58.646Z,13.10
2018-03-22T01:45:32.693Z,11.98
2018-03-22T01:46:06.552Z,11.82
2018-03-22T01:46:40.452Z,12.35
2018-03-22T01:47:14.322Z,12.70
2018-03-22T01:47:48.193Z,12.77
2018-03-22T01:48:22.051Z,12.60
2018-03-22T01:48:55.926Z,13.52
2018-03-22T01:49:30.060Z,13.20
2018-03-22T01:50:03.948Z,13.00
2018-03-22T01:50:38.241Z,12.32
2018-03-22T01:51:12.096Z,12.02
2018-03-22T01:51:45.967Z,12.20
2018-03-22T01:52:19.826Z,12.80
2018-03-22T01:52:59.453Z,13.27
2018-03-22T01:53:33.339Z,11.52
2018-03-22T01:54:07.200Z,13.23
2018-03-22T01:54:41.091Z,12.05
2018-03-22T01:55:14.987Z,12.70
2018-03-22T01:55:48.889Z,12.98
2018-03-22T01:56:22.831Z,11.60
2018-03-22T01:56:56.828Z,13.02
2018-03-22T01:57:30.686Z,12.95
2018-03-22T01:58:04.737Z,12.85
2018-03-22T01:58:38.598Z,14.40
2018-03-22T01:59:12.463Z,12.80
2018-03-22T01:59:46.812Z,14.10
2018-03-22T02:00:20.671Z,14.70
2018-03-22T02:00:54.828Z,14.13
2018-03-22T02:01:28.805Z,11.73
2018-03-22T02:02:02.662Z,13.75
2018-03-22T02:02:36.575Z,14.68
2018-03-22T02:03:10.602Z,11.88
2018-03-22T02:03:44.519Z,12.15
2018-03-22T02:04:18.606Z,13.32
2018-03-22T02:04:52.457Z,13.98
2018-03-22T02:05:26.333Z,11.77
2018-03-22T02:06:00.203Z,12.43
2018-03-22T02:06:34.091Z,13.15
2018-03-22T02:07:07.950Z,12.77
2018-03-22T02:07:41.823Z,13.48
2018-03-22T02:08:15.688Z,13.15
2018-03-22T02:08:49.754Z,13.75
2018-03-22T02:09:23.613Z,12.18
2018-03-22T02:09:57.663Z,13.20
2018-03-22T02:10:31.528Z,13.07
2018-03-22T02:11:05.404Z,13.40
2018-03-22T02:11:39.432Z,12.82
2018-03-22T02:12:13.297Z,13.43
2018-03-22T02:12:47.152Z,12.90
2018-03-22T02:13:21.221Z,13.23
2018-03-22T02:13:55.081Z,12.20
2018-03-22T02:14:29.009Z,13.40
2018-03-22T02:15:02.874Z,13.68
2018-03-22T02:15:36.733Z,13.35
2018-03-22T02:16:10.614Z,13.65
2018-03-22T02:16:44.472Z,13.27
2018-03-22T02:17:18.322Z,13.05
2018-03-22T02:17:52.182Z,13.35
2018-03-22T02:18:26.175Z,12.60
2018-03-22T02:19:00.039Z,12.98
2018-03-22T02:19:33.908Z,13.40
2018-03-22T02:20:07.773Z,14.13
2018-03-22T02:20:41.634Z,13.73
2018-03-22T02:21:15.551Z,14.40
2018-03-22T02:21:49.581Z,13.55
2018-03-22T02:22:23.444Z,14.85
2018-03-22T02:22:57.348Z,15.25
2018-03-22T02:23:31.236Z,14.10
2018-03-22T02:24:05.098Z,13.77
2018-03-22T02:24:39.033Z,14.20
2018-03-22T02:25:12.932Z,13.68
2018-03-22T02:25:46.785Z,15.13
2018-03-22T02:26:20.659Z,15.93
2018-03-22T02:26:54.516Z,14.68
2018-03-22T02:27:28.404Z,13.55
2018-03-22T02:28:02.258Z,13.85
2018-03-22T02:28:36.397Z,14.55
2018-03-22T02:29:10.396Z,14.80
2018-03-22T02:29:44.257Z,14.13
2018-03-22T02:30:18.105Z,13.93
2018-03-22T02:30:52.090Z,12.93
2018-03-22T02:31:26.008Z,16.23
2018-03-22T02:31:59.882Z,15.30
2018-03-22T02:32:33.775Z,14.93
2018-03-22T02:33:07.773Z,14.93
2018-03-22T02:33:41.875Z,14.38
2018-03-22T02:34:15.770Z,15.30
2018-03-22T02:34:49.632Z,13.38
2018-03-22T02:35:23.657Z,13.32
2018-03-22T02:35:57.542Z,13.57
2018-03-22T02:36:31.580Z,14.05
2018-03-22T02:37:05.654Z,15.60
2018-03-22T02:37:39.517Z,15.88
2018-03-22T02:38:13.638Z,13.62
2018-03-22T02:38:47.505Z,15.15
2018-03-22T02:39:21.433Z,14.50
2018-03-22T02:39:55.286Z,16.40
2018-03-22T02:40:29.142Z,13.70
2018-03-22T02:41:03.125Z,14.20
2018-03-22T02:41:37.330Z,15.00
2018-03-22T02:42:11.310Z,16.35
2018-03-22T02:42:45.231Z,14.25
2018-03-22T02:43:19.061Z,14.15
2018-03-22T02:43:52.926Z,14.73
2018-03-22T02:44:26.784Z,16.05
2018-03-22T02:45:00.645Z,15.02
2018-03-22T02:45:34.695Z,15.40
2018-03-22T02:46:08.558Z,14.93
2018-03-22T02:46:42.683Z,15.48
2018-03-22T02:47:16.689Z,15.23
2018-03-22T02:47:50.558Z,14.90
2018-03-22T02:48:24.429Z,13.95
2018-03-22T02:48:58.300Z,15.60
2018-03-22T02:49:32.165Z,14.02
2018-03-22T02:50:06.041Z,15.80
2018-03-22T02:50:39.957Z,14.30
2018-03-22T02:51:13.821Z,13.50
2018-03-22T02:51:47.694Z,15.63
2018-03-22T02:52:21.566Z,15.63
2018-03-22T02:52:55.548Z,15.45
2018-03-22T02:53:29.404Z,14.57
2018-03-22T02:54:03.268Z,15.68
2018-03-22T02:54:37.145Z,14.38
2018-03-22T02:55:11.019Z,14.02
2018-03-22T02:55:44.885Z,16.02
2018-03-22T02:56:19.604Z,14.13
2018-03-22T02:56:53.600Z,14.68
2018-03-22T02:57:27.472Z,13.88
2018-03-22T02:58:01.450Z,14.18
2018-03-22T02:58:35.404Z,14.87
2018-03-22T02:59:09.262Z,15.95
2018-03-22T02:59:43.409Z,15.07
2018-03-22T03:00:17.511Z,15.43
2018-03-22T03:00:51.499Z,13.88
2018-03-22T03:01:25.401Z,14.15
2018-03-22T03:01:59.274Z,15.38
2018-03-22T03:02:33.497Z,14.25
2018-03-22T03:03:07.363Z,15.23
2018-03-22T03:03:41.498Z,14.07
2018-03-22T03:04:15.362Z,15.85
2018-03-22T03:04:49.237Z,15.68
2018-03-22T03:05:23.129Z,15.73
2018-03-22T03:05:56.997Z,15.05
2018-03-22T03:06:30.870Z,14.63
2018-03-22T03:07:04.962Z,15.35
2018-03-22T03:07:38.964Z,15.60
2018-03-22T03:08:13.066Z,14.45
2018-03-22T03:08:46.930Z,14.50
2018-03-22T03:09:20.813Z,15.40
2018-03-22T03:09:54.842Z,16.83
2018-03-22T03:10:28.683Z,14.25
2018-03-22T03:11:02.542Z,13.95
2018-03-22T03:11:36.425Z,14.82
2018-03-22T03:12:10.303Z,15.25
2018-03-22T03:12:44.221Z,14.93
2018-03-22T03:13:18.086Z,16.12
2018-03-22T03:13:52.017Z,16.08
2018-03-22T03:14:25.878Z,15.50
2018-03-22T03:14:59.913Z,14.98
2018-03-22T03:15:33.902Z,14.80
2018-03-22T03:16:07.767Z,15.13
2018-03-22T03:16:41.804Z,15.05
2018-03-22T03:17:15.710Z,16.35
2018-03-22T03:17:49.586Z,15.43
2018-03-22T03:18:23.579Z,14.73
2018-03-22T03:18:57.447Z,15.90
2018-03-22T03:19:31.498Z,16.05
2018-03-22T03:20:05.358Z,16.23
2018-03-22T03:20:39.576Z,15.65
2018-03-22T03:21:13.572Z,15.02
2018-03-22T03:21:47.783Z,16.52
2018-03-22T03:22:21.704Z,15.23
2018-03-22T03:22:55.552Z,15.63
2018-03-22T03:23:29.459Z,14.93
2018-03-22T03:24:03.320Z,17.23
2018-03-22T03:24:37.181Z,15.65
2018-03-22T03:25:11.152Z,16.37
2018-03-22T03:25:45.061Z,14.98
2018-03-22T03:26:18.938Z,16.25
2018-03-22T03:26:53.147Z,15.73
2018-03-22T03:27:27.242Z,16.20
2018-03-22T03:28:01.103Z,16.55
2018-03-22T03:28:35.153Z,15.43
2018-03-22T03:29:09.666Z,17.10
2018-03-22T03:29:43.546Z,16.27
2018-03-22T03:30:17.603Z,15.52
2018-03-22T03:30:51.417Z,15.80
2018-03-22T03:31:25.273Z,16.48
2018-03-22T03:31:59.222Z,17.60
2018-03-22T03:32:33.423Z,15.45
2018-03-22T03:33:07.284Z,15.68
2018-03-22T03:33:41.434Z,17.05
2018-03-22T03:34:15.302Z,15.85
2018-03-22T03:34:49.162Z,16.17
2018-03-22T03:35:23.026Z,17.83
2018-03-22T03:35:57.099Z,17.17
2018-03-22T03:36:30.966Z,16.00
2018-03-22T03:37:04.835Z,15.82
2018-03-22T03:37:38.726Z,16.67
2018-03-22T03:38:12.580Z,16.85
2018-03-22T03:38:46.442Z,16.62
2018-03-22T03:39:20.300Z,16.17
2018-03-22T03:39:54.165Z,16.50
2018-03-22T03:40:28.025Z,15.77
2018-03-22T03:41:01.890Z,17.35
2018-03-22T03:41:35.753Z,17.25
2018-03-22T03:42:09.745Z,16.92
2018-03-22T03:42:43.745Z,17.70
2018-03-22T03:43:17.615Z,17.25
2018-03-22T03:43:51.849Z,16.30
2018-03-22T03:44:25.713Z,17.52
2018-03-22T03:44:59.582Z,18.73
2018-03-22T03:45:33.747Z,18.42
2018-03-22T03:46:07.606Z,17.95
2018-03-22T03:46:41.477Z,18.02
2018-03-22T03:47:15.528Z,16.23
2018-03-22T03:47:49.401Z,18.48
2018-03-22T03:48:23.281Z,16.85
2018-03-22T03:48:57.411Z,17.75
2018-03-22T03:49:31.410Z,17.30
2018-03-22T03:50:05.265Z,16.50
2018-03-22T03:50:39.142Z,16.65
2018-03-22T03:51:13.093Z,19.30
2018-03-22T03:51:46.947Z,15.82
2018-03-22T03:52:20.995Z,16.98
2018-03-22T03:52:55.004Z,16.90
2018-03-22T03:53:28.861Z,17.67
2018-03-22T03:54:02.722Z,17.35
2018-03-22T03:54:36.875Z,17.23
2018-03-22T03:55:10.738Z,16.58
2018-03-22T03:55:44.675Z,16.83
2018-03-22T03:56:18.549Z,16.48
2018-03-22T03:56:52.409Z,16.23
2018-03-22T03:57:26.454Z,15.93
2018-03-22T03:58:00.467Z,16.12
2018-03-22T03:58:34.328Z,16.58
2018-03-22T03:59:08.205Z,16.08
2018-03-22T03:59:42.174Z,16.65
2018-03-22T04:00:16.468Z,17.90
2018-03-22T04:00:50.329Z,16.45
2018-03-22T04:01:24.322Z,15.35
2018-03-22T04:01:58.434Z,15.80
2018-03-22T04:02:32.328Z,15.80
2018-03-22T04:03:06.210Z,18.02
2018-03-22T04:03:40.441Z,15.88
2018-03-22T04:04:14.334Z,15.55
2018-03-22T04:04:48.201Z,16.27
2018-03-22T04:05:22.065Z,16.27
2018-03-22T04:05:55.926Z,17.25
2018-03-22T04:06:29.821Z,15.57
2018-03-22T04:07:03.680Z,14.93
2018-03-22T04:07:37.701Z,16.62
2018-03-22T04:08:11.580Z,15.52
2018-03-22T04:08:45.593Z,15.20
2018-03-22T04:09:19.458Z,16.30
2018-03-22T04:09:53.325Z,15.90
2018-03-22T04:10:27.478Z,15.93
2018-03-22T04:11:01.380Z,14.98
2018-03-22T04:11:35.249Z,14.70
2018-03-22T04:12:09.287Z,15.30
2018-03-22T04:12:43.158Z,15.55
2018-03-22T04:13:17.381Z,15.80
2018-03-22T04:13:51.258Z,16.50
2018-03-22T04:14:25.124Z,16.10
2018-03-22T04:14:58.986Z,15.05
2018-03-22T04:15:32.857Z,16.12
2018-03-22T04:16:06.733Z,15.50
2018-03-22T04:16:40.592Z,16.12
2018-03-22T04:17:14.642Z,16.08
2018-03-22T04:17:48.630Z,16.65
2018-03-22T04:18:22.518Z,15.70
2018-03-22T04:18:56.377Z,16.67
2018-03-22T04:19:30.420Z,16.73
2018-03-22T04:20:04.281Z,15.00
2018-03-22T04:20:39.355Z,15.38
2018-03-22T04:21:13.332Z,14.75
2018-03-22T04:21:47.193Z,15.43
2018-03-22T04:22:21.070Z,16.55
2018-03-22T04:22:55.233Z,15.15
2018-03-22T04:23:29.136Z,16.58
2018-03-22T04:24:03.017Z,13.77
2018-03-22T04:24:36.873Z,15.88
2018-03-22T04:25:10.740Z,14.40
2018-03-22T04:25:44.704Z,16.33
2018-03-22T04:26:18.581Z,15.65
2018-03-22T04:26:52.525Z,17.12
2018-03-22T04:27:26.388Z,15.82
2018-03-22T04:28:00.247Z,14.70
2018-03-22T04:28:34.181Z,14.93
2018-03-22T04:29:08.028Z,14.57
2018-03-22T04:29:42.086Z,14.23
2018-03-22T04:30:16.092Z,15.90
2018-03-22T04:30:49.973Z,14.00
2018-03-22T04:31:23.847Z,14.77
2018-03-22T04:31:57.717Z,15.02
2018-03-22T04:32:31.672Z,14.73
2018-03-22T04:33:05.525Z,14.98
2018-03-22T04:33:39.645Z,16.70
2018-03-22T04:34:13.545Z,14.35
2018-03-22T04:34:47.406Z,15.95
2018-03-22T04:35:21.346Z,14.13
2018-03-22T04:35:55.406Z,14.40
2018-03-22T04:36:29.273Z,13.90
2018-03-22T04:37:03.230Z,15.02
2018-03-22T04:37:37.086Z,14.40
2018-03-22T04:38:10.960Z,16.48
2018-03-22T04:38:45.009Z,15.73
2018-03-22T04:39:18.871Z,14.05
2018-03-22T04:39:52.740Z,16.48
2018-03-22T04:40:26.696Z,14.87
2018-03-22T04:41:00.554Z,15.73
2018-03-22T04:41:34.422Z,15.90
2018-03-22T04:42:08.295Z,15.43
2018-03-22T04:42:42.146Z,14.82
2018-03-22T04:43:16.170Z,16.12
2018-03-22T04:43:50.079Z,16.77
2018-03-22T04:44:23.948Z,16.60
2018-03-22T04:44:57.817Z,16.58
2018-03-22T04:45:31.688Z,15.75
2018-03-22T04:46:05.549Z,16.60
2018-03-22T04:46:39.416Z,15.10
2018-03-22T04:47:13.645Z,14.15
2018-03-22T04:47:47.524Z,16.27
2018-03-22T04:48:21.434Z,15.75
2018-03-22T04:48:55.322Z,15.60
2018-03-22T04:49:29.329Z,15.20
2018-03-22T04:50:03.185Z,14.43
2018-03-22T04:50:37.050Z,15.50
2018-03-22T04:51:10.944Z,15.43
2018-03-22T04:51:45.317Z,14.80
2018-03-22T04:52:19.221Z,16.23
2018-03-22T04:52:53.108Z,14.15
2018-03-22T04:53:27.005Z,15.05
2018-03-22T04:54:01.214Z,14.38
2018-03-22T04:54:35.202Z,15.63
2018-03-22T04:55:09.102Z,15.10
2018-03-22T04:55:43.025Z,14.30
2018-03-22T04:56:16.866Z,15.30
2018-03-22T04:56:50.989Z,14.60
2018-03-22T04:57:24.986Z,15.13
2018-03-22T04:57:58.833Z,14.70
2018-03-22T04:58:32.709Z,15.10
2018-03-22T04:59:06.675Z,16.95
2018-03-22T04:59:40.536Z,15.68
2018-03-22T05:00:14.671Z,14.80
2018-03-22T05:00:48.677Z,15.75
2018-03-22T05:01:22.533Z,15.88
2018-03-22T05:01:56.662Z,14.55
2018-03-22T05:02:30.523Z,15.10
2018-03-22T05:03:04.595Z,15.82
2018-03-22T05:03:38.655Z,15.93
2018-03-22T05:04:12.540Z,15.57
2018-03-22T05:04:46.397Z,16.52
2018-03-22T05:05:20.266Z,15.23
2018-03-22T05:05:54.125Z,14.75
2018-03-22T05:06:28.142Z,16.62
2018-03-22T05:07:02.027Z,16.40
2018-03-22T05:07:36.084Z,16.25
2018-03-22T05:08:10.133Z,16.42
2018-03-22T05:08:44.008Z,15.30
2018-03-22T05:09:18.015Z,14.87
2018-03-22T05:09:52.159Z,17.90
2018-03-22T05:10:26.219Z,17.08
2018-03-22T05:11:00.080Z,16.30
2018-03-22T05:11:34.131Z,15.68
2018-03-22T05:12:08.001Z,16.45
2018-03-22T05:12:42.051Z,17.85
2018-03-22T05:13:16.119Z,16.12
2018-03-22T05:13:49.984Z,16.08
2018-03-22T05:14:24.028Z,17.02
2018-03-22T05:14:58.112Z,17.87
2018-03-22T05:15:31.978Z,16.95
2018-03-22T05:16:06.574Z,17.27
2018-03-22T05:16:40.442Z,18.37
2018-03-22T05:17:14.289Z,18.33
2018-03-22T05:17:48.494Z,15.80
2018-03-22T05:18:22.416Z,18.15
2018-03-22T05:18:56.398Z,16.95
2018-03-22T05:19:30.299Z,17.98
2018-03-22T05:20:04.342Z,17.98
2018-03-22T05:20:38.200Z,16.45
2018-03-22T05:21:12.073Z,17.15
2018-03-22T05:21:46.076Z,18.35
2018-03-22T05:22:21.398Z,18.02
2018-03-22T05:22:55.255Z,18.30
2018-03-22T05:23:31.520Z,17.75
2018-03-22T05:24:05.365Z,17.95
2018-03-22T05:24:39.269Z,18.65
2018-03-22T05:25:13.150Z,19.10
2018-03-22T05:25:47.008Z,19.35
2018-03-22T05:26:21.033Z,20.20
2018-03-22T05:26:54.956Z,18.70
2018-03-22T05:27:28.925Z,19.35
2018-03-22T05:28:02.791Z,20.15
2018-03-22T05:28:36.817Z,19.50
2018-03-22T05:29:10.690Z,20.70
2018-03-22T05:29:44.919Z,20.80
2018-03-22T05:30:18.801Z,19.95
2018-03-22T05:30:52.664Z,20.67
2018-03-22T05:31:26.698Z,19.85
2018-03-22T05:32:00.705Z,21.15
2018-03-22T05:32:34.579Z,20.17
2018-03-22T05:33:08.452Z,20.45
2018-03-22T05:33:42.392Z,20.40
2018-03-22T05:34:16.478Z,20.88
2018-03-22T05:34:50.374Z,22.35
2018-03-22T05:35:24.246Z,21.35
2018-03-22T05:35:58.281Z,21.70
2018-03-22T05:36:32.163Z,22.90
2018-03-22T05:37:06.015Z,19.23
2018-03-22T05:37:39.882Z,19.37
2018-03-22T05:38:13.745Z,21.27
2018-03-22T05:38:47.638Z,21.58
2018-03-22T05:39:21.509Z,22.67
2018-03-22T05:39:55.448Z,21.83
2018-03-22T05:40:29.282Z,22.00
2018-03-22T05:41:03.262Z,20.33
2018-03-22T05:41:37.127Z,23.02
2018-03-22T05:42:11.154Z,22.83
2018-03-22T05:42:45.017Z,22.65
2018-03-22T05:43:18.892Z,22.45
2018-03-22T05:43:52.757Z,23.62
2018-03-22T05:44:26.795Z,21.73
2018-03-22T05:45:01.005Z,22.55
2018-03-22T05:45:35.116Z,21.33
2018-03-22T05:46:09.016Z,22.52
2018-03-22T05:46:42.906Z,22.67
2018-03-22T05:47:16.904Z,24.15
2018-03-22T05:47:50.786Z,22.48
2018-03-22T05:48:24.677Z,23.42
2018-03-22T05:48:58.541Z,23.80
2018-03-22T05:49:32.436Z,23.73
2018-03-22T05:50:06.311Z,22.60
2018-03-22T05:50:40.266Z,22.50
2018-03-22T05:51:14.138Z,24.42
2018-03-22T05:51:48.005Z,24.67
2018-03-22T05:52:21.993Z,25.77
2018-03-22T05:52:56.263Z,25.25
2018-03-22T05:53:30.125Z,22.45
2018-03-22T05:54:04.374Z,22.05
2018-03-22T05:54:38.243Z,24.67
2018-03-22T05:55:12.112Z,24.35
2018-03-22T05:55:46.001Z,26.90
2018-03-22T05:56:20.036Z,24.75
2018-03-22T05:56:53.911Z,24.37
2018-03-22T05:57:27.781Z,24.85
2018-03-22T05:58:01.642Z,24.95
2018-03-22T05:58:35.496Z,26.83
2018-03-22T05:59:09.374Z,26.98
2018-03-22T05:59:43.263Z,26.12
2018-03-22T06:00:17.299Z,25.05
2018-03-22T06:00:51.165Z,25.45
2018-03-22T06:01:25.033Z,25.25
2018-03-22T06:01:59.100Z,26.73
2018-03-22T06:02:32.967Z,27.95
2018-03-22T06:03:07.006Z,26.12
2018-03-22T06:03:40.869Z,25.60
2018-03-22T06:04:14.736Z,24.75
2018-03-22T06:04:48.872Z,25.20
2018-03-22T06:05:22.754Z,25.42
2018-03-22T06:05:56.883Z,24.50
2018-03-22T06:06:30.780Z,29.23
2018-03-22T06:07:04.660Z,24.67
2018-03-22T06:07:38.551Z,26.08
2018-03-22T06:08:12.442Z,25.33
2018-03-22T06:08:46.454Z,26.67
2018-03-22T06:09:20.320Z,25.50
2018-03-22T06:09:54.186Z,28.80
2018-03-22T06:10:28.244Z,26.33
2018-03-22T06:11:02.124Z,27.92
2018-03-22T06:11:35.996Z,25.30
2018-03-22T06:12:09.873Z,24.58
2018-03-22T06:12:43.742Z,26.15
2018-03-22T06:13:17.598Z,23.65
2018-03-22T06:13:51.464Z,26.48
2018-03-22T06:14:25.727Z,26.42
2018-03-22T06:14:59.607Z,25.65
2018-03-22T06:15:34.194Z,25.08
2018-03-22T06:16:08.074Z,26.85
2018-03-22T06:16:42.139Z,26.17
2018-03-22T06:17:16.083Z,27.52
2018-03-22T06:17:50.241Z,24.10
2018-03-22T06:18:24.114Z,24.45
2018-03-22T06:18:57.969Z,24.25
2018-03-22T06:19:32.022Z,23.65
2018-03-22T06:20:05.887Z,25.70
2018-03-22T06:20:39.910Z,25.27
2018-03-22T06:21:13.783Z,24.67
2018-03-22T06:21:47.788Z,24.75
2018-03-22T06:22:21.983Z,23.73
2018-03-22T06:22:55.863Z,24.80
2018-03-22T06:23:29.875Z,22.90
2018-03-22T06:24:03.752Z,25.70
2018-03-22T06:24:37.623Z,22.58
2018-03-22T06:25:11.506Z,21.87
2018-03-22T06:25:45.420Z,24.15
2018-03-22T06:26:19.298Z,24.67
2018-03-22T06:26:53.213Z,23.20
2018-03-22T06:27:27.343Z,24.95
2018-03-22T06:28:01.238Z,23.92
2018-03-22T06:28:35.136Z,26.17
2018-03-22T06:29:09.056Z,27.87
2018-03-22T06:29:43.890Z,26.12
2018-03-22T06:30:17.739Z,27.62
2018-03-22T06:30:51.645Z,23.87
2018-03-22T06:31:26.312Z,23.50
2018-03-22T06:32:00.192Z,29.58
2018-03-22T06:32:34.207Z,26.25
2018-03-22T06:33:08.098Z,24.08
2018-03-22T06:33:42.068Z,24.45
2018-03-22T06:34:15.962Z,22.92
2018-03-22T06:34:49.931Z,25.08
2018-03-22T06:35:23.801Z,25.35
2018-03-22T06:35:57.853Z,24.33
2018-03-22T06:36:31.721Z,24.77
2018-03-22T06:37:05.593Z,22.35
2018-03-22T06:37:39.609Z,22.60
2018-03-22T06:38:13.473Z,22.75
2018-03-22T06:38:47.464Z,23.20
2018-03-22T06:39:21.514Z,22.40
2018-03-22T06:39:56.017Z,23.25
2018-03-22T06:40:30.008Z,25.00
2018-03-22T06:41:03.930Z,25.73
2018-03-22T06:41:37.904Z,27.80
2018-03-22T06:42:11.905Z,23.65
2018-03-22T06:42:45.802Z,26.90
2018-03-22T06:43:19.664Z,24.50
2018-03-22T06:43:53.526Z,21.12
2018-03-22T06:44:27.538Z,22.40
2018-03-22T06:45:01.768Z,24.48
2018-03-22T06:45:35.641Z,25.73
2018-03-22T06:46:09.528Z,24.23
2018-03-22T06:46:43.394Z,26.00
2018-03-22T06:47:17.360Z,21.60
2018-03-22T06:47:51.260Z,24.58
2018-03-22T06:48:25.481Z,26.42
2018-03-22T06:48:59.359Z,23.65
2018-03-22T06:49:33.333Z,21.67
2018-03-22T06:50:07.169Z,21.17
2018-03-22T06:50:41.036Z,21.67
2018-03-22T06:51:14.911Z,21.83
2018-03-22T06:51:48.770Z,22.17
2018-03-22T06:52:22.731Z,22.05
2018-03-22T06:52:56.658Z,23.87
2018-03-22T06:53:30.648Z,25.15
2018-03-22T06:54:04.495Z,28.30
2018-03-22T06:54:38.357Z,24.87
2018-03-22T06:55:12.206Z,30.23
2018-03-22T06:55:46.064Z,24.87
2018-03-22T06:56:19.960Z,33.90
2018-03-22T06:56:53.871Z,32.90
2018-03-22T06:57:27.738Z,26.35
2018-03-22T06:58:01.816Z,24.87
2018-03-22T06:58:35.681Z,24.05
2018-03-22T06:59:09.585Z,23.40
2018-03-22T06:59:43.453Z,20.70
2018-03-22T07:00:17.385Z,25.95
2018-03-22T07:00:51.268Z,21.77
2018-03-22T07:01:25.186Z,21.10
2018-03-22T07:01:59.073Z,29.58
2018-03-22T07:02:32.978Z,23.15
2018-03-22T07:03:09.292Z,27.40
2018-03-22T07:03:43.243Z,23.98
2018-03-22T07:04:17.712Z,21.80
2018-03-22T07:04:53.030Z,20.90
2018-03-22T07:05:27.198Z,32.25
2018-03-22T07:06:01.239Z,21.35
2018-03-22T07:06:35.349Z,21.00
2018-03-22T07:07:09.233Z,21.65
2018-03-22T07:07:45.364Z,19.83
2018-03-22T07:08:19.380Z,21.83
2018-03-22T07:08:53.264Z,25.75
2018-03-22T07:09:29.481Z,21.90
2018-03-22T07:10:04.884Z,21.10
2018-03-22T07:10:38.849Z,21.90
2018-03-22T07:11:12.744Z,20.73
2018-03-22T07:11:46.810Z,21.87
2018-03-22T07:12:20.686Z,23.80
2018-03-22T07:12:54.647Z,21.92
2018-03-22T07:13:28.508Z,21.52
2018-03-22T07:14:02.660Z,20.10
2018-03-22T07:14:36.552Z,21.35
2018-03-22T07:15:10.431Z,21.85
2018-03-22T07:15:44.294Z,20.30
2018-03-22T07:16:18.166Z,20.88
2018-03-22T07:16:52.062Z,21.83
2018-03-22T07:17:25.950Z,21.58
2018-03-22T07:18:01.036Z,21.02
2018-03-22T07:18:35.076Z,20.90
2018-03-22T07:19:08.963Z,20.67
2018-03-22T07:19:42.843Z,21.00